Time;durP1;ratioP1;P1;durP2;ratioP2;P2;SDS_P1;SDS_P2;PMS_P1;PMS_P2;Temp;Humidity;BMP_temperature;BMP_pressure;BME280_temperature;BME280_humidity;BME280_pressure;Samples;Min_cycle;Max_cycle;Signal;HPM_P1;HPM_P2
2021/04/20 00:00:32;;;;;;;12.43;9.47;;;;;;;6.05;69.44;99089.34;5073712;28;42404;-73
2021/04/20 00:02:59;;;;;;;12.47;11.00;;;;;;;6.03;70.56;99077.19;5101962;28;42032;-74
2021/04/20 00:05:27;;;;;;;13.70;10.70;;;;;;;6.01;70.29;99082.50;5110269;28;39897;-72
2021/04/20 00:07:54;;;;;;;13.33;10.40;;;;;;;5.96;69.93;99080.97;5110472;28;42393;-73
2021/04/20 00:10:21;;;;;;;14.17;10.93;;;;;;;5.94;69.93;99075.75;5111367;27;43607;-73
2021/04/20 00:12:50;;;;;;;13.43;10.53;;;;;;;5.89;69.78;99083.00;5105287;27;41854;-73
2021/04/20 00:15:21;;;;;;;12.43;10.00;;;;;;;5.86;69.59;99077.81;5105899;28;40022;-73
2021/04/20 00:17:50;;;;;;;12.37;9.73;;;;;;;5.82;69.59;99076.22;5090527;28;41311;-73
2021/04/20 00:20:17;;;;;;;11.70;8.83;;;;;;;5.77;69.42;99078.19;5090275;28;42585;-73
2021/04/20 00:22:45;;;;;;;12.37;10.27;;;;;;;5.74;69.26;99080.94;5109725;28;42142;-73
2021/04/20 00:25:12;;;;;;;12.57;9.27;;;;;;;5.69;69.44;99075.00;5111015;27;40109;-73
2021/04/20 00:27:39;;;;;;;12.73;9.87;;;;;;;5.66;69.22;99080.38;5111208;27;41668;-73
2021/04/20 00:30:10;;;;;;;10.27;8.47;;;;;;;5.64;69.02;99074.34;5109294;28;43269;-72
2021/04/20 00:32:37;;;;;;;12.63;9.00;;;;;;;5.57;69.17;99057.06;5096006;27;42249;-73
2021/04/20 00:35:06;;;;;;;10.70;8.57;;;;;;;5.53;69.38;99058.13;5091234;28;40009;-73
2021/04/20 00:37:34;;;;;;;11.87;8.80;;;;;;;5.52;69.21;99073.03;5089690;28;41998;-74
2021/04/20 00:40:04;;;;;;;13.07;10.27;;;;;;;5.48;69.35;99071.44;5096150;28;43485;-73
2021/04/20 00:42:31;;;;;;;15.63;10.33;;;;;;;5.43;69.41;99068.16;5093232;28;41507;-73
2021/04/20 00:44:58;;;;;;;12.43;9.37;;;;;;;5.39;69.44;99061.28;5110813;27;40183;-73
2021/04/20 00:47:26;;;;;;;15.50;11.53;;;;;;;5.33;69.42;99057.13;5127040;27;41434;-73
2021/04/20 00:49:53;;;;;;;14.23;9.57;;;;;;;5.31;69.35;99058.97;5090331;28;42255;-75
2021/04/20 00:52:20;;;;;;;22.70;15.40;;;;;;;5.26;69.62;99058.28;5090761;28;42908;-73
2021/04/20 00:54:47;;;;;;;15.03;10.63;;;;;;;5.24;69.54;99052.22;5107684;28;39988;-73
2021/04/20 00:57:14;;;;;;;15.57;9.90;;;;;;;5.20;69.64;99055.88;5110628;27;42215;-74
2021/04/20 00:59:41;;;;;;;20.30;10.77;;;;;;;5.07;69.45;99044.97;5100813;27;42900;-73
2021/04/20 01:02:10;;;;;;;15.03;10.63;;;;;;;5.15;69.70;99057.81;5089004;28;41275;-72
2021/04/20 01:04:39;;;;;;;12.67;9.63;;;;;;;5.12;69.78;99055.31;5089204;28;39870;-73
2021/04/20 01:07:06;;;;;;;15.17;10.20;;;;;;;5.09;69.74;99057.19;5089082;28;41579;-73
2021/04/20 01:09:33;;;;;;;15.53;10.57;;;;;;;5.08;70.06;99058.94;5095554;28;43612;-73
2021/04/20 01:12:00;;;;;;;14.43;9.77;;;;;;;5.07;70.19;99059.84;5109333;28;41773;-73
2021/04/20 01:14:27;;;;;;;15.23;11.00;;;;;;;5.09;69.86;99058.03;5110028;27;39649;-72
2021/04/20 01:16:54;;;;;;;14.73;11.00;;;;;;;5.09;69.96;99063.28;5110781;27;42327;-72
2021/04/20 01:19:24;;;;;;;12.23;9.10;;;;;;;5.11;70.29;99056.22;5093346;28;42754;-73
2021/04/20 01:21:55;;;;;;;13.10;9.37;;;;;;;5.03;70.71;99038.13;5090231;28;42879;-73
2021/04/20 01:24:26;;;;;;;14.73;11.53;;;;;;;5.19;70.65;99055.94;5088067;28;39698;-73
2021/04/20 01:26:54;;;;;;;15.27;10.57;;;;;;;5.17;70.40;99049.91;5105481;28;41660;-72
2021/04/20 01:29:22;;;;;;;11.70;8.97;;;;;;;5.24;70.01;99054.84;5097760;28;42278;-73
2021/04/20 01:31:50;;;;;;;11.47;9.17;;;;;;;5.26;69.88;99055.66;5092410;28;41265;-73
2021/04/20 01:34:18;;;;;;;11.83;9.30;;;;;;;5.28;69.83;99059.06;5110005;28;40641;-73
2021/04/20 01:36:45;;;;;;;10.80;8.73;;;;;;;5.30;69.96;99045.91;5110648;28;41341;-73
2021/04/20 01:39:14;;;;;;;10.80;8.53;;;;;;;5.28;70.48;99040.69;5093278;28;42578;-73
2021/04/20 01:41:42;;;;;;;12.13;10.83;;;;;;;5.30;70.57;99046.75;5125628;27;43018;-73
2021/04/20 01:44:09;;;;;;;13.37;10.50;;;;;;;5.30;70.30;99045.91;5092095;28;40459;-73
2021/04/20 01:46:37;;;;;;;12.37;9.70;;;;;;;5.28;70.18;99048.56;5092382;28;41367;-73
2021/04/20 01:49:04;;;;;;;13.33;9.87;;;;;;;5.25;70.32;99051.31;5088259;28;43032;-72
2021/04/20 01:51:31;;;;;;;12.27;9.73;;;;;;;5.22;70.40;99043.53;5092060;28;40729;-73
2021/04/20 01:53:59;;;;;;;10.97;8.77;;;;;;;5.18;70.23;99043.72;5109929;27;40065;-73
2021/04/20 01:56:29;;;;;;;12.37;9.67;;;;;;;5.14;70.36;99056.09;5100934;27;41675;-72
2021/04/20 01:58:59;;;;;;;10.73;8.53;;;;;;;5.11;70.28;99056.22;5088909;28;43103;-72
2021/04/20 02:01:27;;;;;;;11.17;8.90;;;;;;;5.08;70.19;99058.94;5088370;28;42067;-73
2021/04/20 02:03:55;;;;;;;12.37;8.47;;;;;;;5.03;70.25;99048.63;5088129;28;39785;-73
2021/04/20 02:06:26;;;;;;;10.43;8.40;;;;;;;4.98;70.37;99065.44;5091161;28;41718;-73
2021/04/20 02:08:53;;;;;;;12.30;8.90;;;;;;;4.96;70.44;99062.03;5091973;27;43580;-73
2021/04/20 02:11:27;;;;;;;11.60;8.60;;;;;;;4.92;70.19;99061.31;5087106;28;41949;-73
2021/04/20 02:13:59;;;;;;;9.57;7.37;;;;;;;4.88;70.32;99064.94;5089115;28;40324;-73
2021/04/20 02:16:27;;;;;;;11.07;8.40;;;;;;;4.81;70.25;99058.22;5104491;27;41797;-73
2021/04/20 02:18:57;;;;;;;11.10;8.50;;;;;;;4.80;70.19;99064.38;5088003;28;41781;-72
2021/04/20 02:21:25;;;;;;;12.10;9.53;;;;;;;4.77;70.42;99066.25;5088100;28;42109;-72
2021/04/20 02:23:53;;;;;;;14.07;11.03;;;;;;;4.74;70.41;99061.94;5088965;28;40887;-72
2021/04/20 02:26:27;;;;;;;12.13;9.60;;;;;;;4.68;70.36;99057.78;5099029;28;41688;-73
2021/04/20 02:28:57;;;;;;;12.50;9.20;;;;;;;4.67;70.38;99061.31;5107646;28;42412;-72
2021/04/20 02:31:26;;;;;;;13.10;9.53;;;;;;;4.63;70.50;99059.72;5104735;27;41898;-73
2021/04/20 02:33:54;;;;;;;11.53;9.37;;;;;;;4.59;70.67;99052.84;5087632;28;39954;-75
2021/04/20 02:36:22;;;;;;;13.83;10.53;;;;;;;4.54;71.44;99057.41;5088277;28;42300;-72
2021/04/20 02:38:50;;;;;;;13.40;10.30;;;;;;;4.51;71.31;99054.91;5087550;28;42741;-73
2021/04/20 02:41:19;;;;;;;13.23;10.70;;;;;;;4.47;71.34;99053.28;5087628;28;42989;-73
2021/04/20 02:43:46;;;;;;;12.43;10.50;;;;;;;4.42;71.57;99044.72;5088535;28;39683;-73
2021/04/20 02:46:15;;;;;;;13.60;10.33;;;;;;;4.41;71.69;99048.25;5087441;28;42099;-73
2021/04/20 02:48:45;;;;;;;13.67;10.40;;;;;;;4.40;71.51;99043.94;5087365;28;42147;-73
2021/04/20 02:51:14;;;;;;;11.83;9.63;;;;;;;4.35;71.46;99037.97;5098424;28;41282;-74
2021/04/20 02:53:43;;;;;;;11.37;9.17;;;;;;;4.32;71.31;99048.59;5107375;28;39720;-73
2021/04/20 02:56:13;;;;;;;16.13;11.63;;;;;;;4.28;71.22;99046.97;5107107;28;41607;-73
2021/04/20 02:58:41;;;;;;;14.60;10.30;;;;;;;4.20;71.31;99038.53;5091252;28;41762;-73
2021/04/20 03:01:17;;;;;;;12.60;9.50;;;;;;;4.19;71.12;99047.28;5086173;28;41794;-73
2021/04/20 03:03:46;;;;;;;11.67;9.03;;;;;;;4.16;71.35;99050.00;5090617;28;39623;-72
2021/04/20 03:06:14;;;;;;;11.70;9.50;;;;;;;4.12;71.33;99044.00;5088757;28;41698;-73
2021/04/20 03:08:42;;;;;;;12.63;10.13;;;;;;;4.09;71.25;99040.63;5103359;28;43309;-72
2021/04/20 03:11:14;;;;;;;10.80;8.67;;;;;;;4.07;71.38;99043.31;5069765;28;41818;-72
2021/04/20 03:13:43;;;;;;;15.87;9.63;;;;;;;4.03;71.35;99040.84;5088483;28;39893;-73
2021/04/20 03:16:12;;;;;;;14.47;10.20;;;;;;;4.00;71.64;99047.03;5088627;28;41460;-73
2021/04/20 03:18:39;;;;;;;12.17;8.80;;;;;;;4.00;71.79;99051.41;5089027;28;42786;-73
2021/04/20 03:21:09;;;;;;;13.60;10.13;;;;;;;4.00;72.15;99046.16;5106547;28;42804;-73
2021/04/20 03:23:37;;;;;;;17.60;11.87;;;;;;;3.98;72.28;99049.69;5106999;28;39149;-72
2021/04/20 03:26:12;;;;;;;13.97;10.37;;;;;;;3.96;72.24;99051.50;5107424;28;41729;-72
2021/04/20 03:28:39;;;;;;;13.90;10.60;;;;;;;3.88;71.83;99031.72;5103808;27;43437;-73
2021/04/20 03:31:06;;;;;;;13.83;10.47;;;;;;;3.92;71.82;99049.91;5086667;28;41636;-73
2021/04/20 03:33:40;;;;;;;12.17;9.30;;;;;;;3.90;72.04;99049.09;5088565;28;39901;-73
2021/04/20 03:36:13;;;;;;;14.30;11.00;;;;;;;3.82;71.61;99042.41;5088062;28;42304;-74
2021/04/20 03:38:46;;;;;;;13.37;10.10;;;;;;;3.86;71.53;99054.47;5069806;28;43192;-72
2021/04/20 03:41:16;;;;;;;12.33;9.43;;;;;;;3.78;71.42;99049.50;5108514;27;42285;-73
2021/04/20 03:43:46;;;;;;;11.67;9.23;;;;;;;3.78;71.78;99057.34;5086602;28;40295;-73
2021/04/20 03:46:17;;;;;;;9.80;7.87;;;;;;;3.76;71.78;99053.91;5088102;28;42439;-72
2021/04/20 03:48:48;;;;;;;15.67;11.50;;;;;;;3.74;71.67;99050.50;5098623;28;41616;-74
2021/04/20 03:51:23;;;;;;;13.80;11.07;;;;;;;3.75;72.38;99046.97;5108332;27;42803;-72
2021/04/20 03:53:52;;;;;;;13.60;10.70;;;;;;;3.78;71.99;99046.03;5107128;28;40004;-74
2021/04/20 03:56:25;;;;;;;16.43;12.83;;;;;;;3.77;72.04;99028.59;5108457;27;41294;-72
2021/04/20 03:58:54;;;;;;;16.10;12.90;;;;;;;3.78;72.21;99033.78;5101436;27;43265;-72
2021/04/20 04:01:24;;;;;;;16.63;12.33;;;;;;;3.82;72.52;99037.16;5089764;28;42900;-72
2021/04/20 04:03:52;;;;;;;17.63;13.27;;;;;;;3.82;72.37;99032.78;5089989;28;39964;-74
2021/04/20 04:06:22;;;;;;;14.00;11.57;;;;;;;3.83;72.72;99034.47;5089746;28;41374;-72
2021/04/20 04:08:52;;;;;;;14.97;11.37;;;;;;;3.84;72.58;99025.69;5106240;28;43392;-73
2021/04/20 04:11:22;;;;;;;16.43;11.27;;;;;;;3.86;72.82;99034.38;5091201;28;41925;-73
2021/04/20 04:13:50;;;;;;;15.30;12.20;;;;;;;3.90;72.90;99032.53;5091561;28;40013;-73
2021/04/20 04:16:22;;;;;;;15.00;11.23;;;;;;;3.92;72.67;99028.94;5090380;28;41727;-73
2021/04/20 04:18:53;;;;;;;16.77;12.93;;;;;;;3.97;72.63;99040.13;5107664;28;42703;-72
2021/04/20 04:21:43;;;;;;;15.77;12.53;;;;;;;4.05;72.97;99039.88;5109869;28;41249;-73
2021/04/20 04:24:12;;;;;;;14.30;11.23;;;;;;;4.11;72.32;99039.66;5110646;27;39501;-73
2021/04/20 04:26:49;;;;;;;16.37;12.33;;;;;;;4.18;72.29;99045.56;5110158;28;42041;-74
2021/04/20 04:29:19;;;;;;;12.07;9.33;;;;;;;4.21;72.35;99048.94;5110970;27;43438;-73
2021/04/20 04:31:47;;;;;;;13.10;10.73;;;;;;;4.27;72.14;99055.75;5110738;27;43091;-73
2021/04/20 04:34:17;;;;;;;12.43;10.10;;;;;;;4.31;72.06;99057.34;5110811;27;40009;-72
2021/04/20 04:36:46;;;;;;;12.93;10.17;;;;;;;4.34;71.66;99057.22;5109023;28;41645;-74
2021/04/20 04:39:14;;;;;;;12.17;9.73;;;;;;;4.36;71.58;99068.53;5110243;28;43480;-73
2021/04/20 04:41:42;;;;;;;16.77;12.40;;;;;;;4.34;71.59;99057.22;5109608;28;42840;-73
2021/04/20 04:44:10;;;;;;;12.23;10.17;;;;;;;4.39;71.47;99060.56;5109766;28;39761;-73
2021/04/20 04:46:37;;;;;;;13.03;10.30;;;;;;;4.39;71.66;99057.94;5109280;28;41777;-74
2021/04/20 04:49:06;;;;;;;12.73;9.90;;;;;;;4.41;71.38;99066.63;5088809;28;42016;-72
2021/04/20 04:51:35;;;;;;;13.63;10.43;;;;;;;4.42;71.56;99057.84;5094652;28;42257;-72
2021/04/20 04:54:05;;;;;;;14.03;11.00;;;;;;;4.34;71.48;99049.38;5109120;28;39749;-71
2021/04/20 04:56:35;;;;;;;14.77;10.97;;;;;;;4.43;71.68;99061.31;5110225;28;41970;-72
2021/04/20 04:59:06;;;;;;;12.80;10.43;;;;;;;4.43;71.60;99062.19;5109985;27;42645;-72
2021/04/20 05:01:36;;;;;;;16.93;13.13;;;;;;;4.44;71.85;99061.28;5092014;28;42494;-72
2021/04/20 05:04:07;;;;;;;16.27;12.37;;;;;;;4.47;71.61;99063.75;5107655;27;39696;-72
2021/04/20 05:06:38;;;;;;;16.27;12.23;;;;;;;4.51;71.49;99067.16;5090439;28;41602;-72
2021/04/20 05:09:09;;;;;;;13.40;11.17;;;;;;;4.52;71.42;99061.84;5087999;28;42666;-73
2021/04/20 05:11:37;;;;;;;13.97;10.97;;;;;;;4.59;71.47;99068.59;5105622;28;42179;-72
2021/04/20 05:14:05;;;;;;;12.60;10.23;;;;;;;4.62;71.32;99063.25;5109079;28;39939;-73
2021/04/20 05:16:32;;;;;;;12.83;10.30;;;;;;;4.71;71.69;99072.53;5108677;28;42114;-73
2021/04/20 05:19:01;;;;;;;14.03;11.90;;;;;;;4.69;72.22;99049.03;5108761;28;42632;-73
2021/04/20 05:21:28;;;;;;;15.93;12.13;;;;;;;4.87;72.19;99072.84;5109510;28;42265;-72
2021/04/20 05:23:56;;;;;;;16.97;12.23;;;;;;;4.95;72.57;99066.41;5108191;28;40614;-72
2021/04/20 05:26:26;;;;;;;15.00;12.20;;;;;;;5.05;72.78;99072.22;5110330;27;42429;-72
2021/04/20 05:28:53;;;;;;;15.93;11.57;;;;;;;5.18;72.63;99069.97;5110110;27;42680;-73
2021/04/20 05:31:20;;;;;;;12.83;10.00;;;;;;;5.30;72.79;99062.50;5109133;28;40810;-72
2021/04/20 05:33:56;;;;;;;11.87;9.87;;;;;;;5.45;72.64;99068.91;5108741;28;39903;-72
2021/04/20 05:36:23;;;;;;;12.50;9.27;;;;;;;5.62;72.44;99065.66;5106098;28;41671;-74
2021/04/20 05:38:52;;;;;;;11.53;10.33;;;;;;;5.74;72.35;99067.78;5090532;27;43450;-72
2021/04/20 05:41:23;;;;;;;11.93;9.90;;;;;;;5.84;72.14;99052.50;5106973;28;42081;-72
2021/04/20 05:43:53;;;;;;;12.80;10.87;;;;;;;5.94;71.88;99049.47;5105642;27;40408;-72
2021/04/20 05:46:21;;;;;;;13.50;11.10;;;;;;;6.04;72.06;99053.47;5109029;27;41735;-73
2021/04/20 05:48:49;;;;;;;12.20;10.07;;;;;;;6.18;71.69;99057.31;5101439;27;42743;-72
2021/04/20 05:51:17;;;;;;;10.97;9.57;;;;;;;6.34;71.41;99050.47;5104964;28;41602;-72
2021/04/20 05:53:45;;;;;;;13.43;11.17;;;;;;;6.50;71.19;99054.16;5106682;27;39908;-73
2021/04/20 05:56:14;;;;;;;14.57;11.00;;;;;;;6.57;70.88;99050.31;5102213;28;41325;-74
2021/04/20 05:58:42;;;;;;;55.33;36.93;;;;;;;6.69;70.53;99055.06;5107760;27;42493;-73
2021/04/20 06:01:10;;;;;;;22.93;17.20;;;;;;;6.74;70.89;99063.63;5090267;28;42457;-73
2021/04/20 06:03:40;;;;;;;16.40;12.10;;;;;;;6.85;70.55;99061.38;5106771;28;39999;-72
2021/04/20 06:06:07;;;;;;;14.40;10.93;;;;;;;7.04;70.60;99061.41;5105633;28;42475;-73
2021/04/20 06:08:36;;;;;;;11.87;9.73;;;;;;;7.29;70.41;99055.03;5089833;28;42988;-72
2021/04/20 06:11:05;;;;;;;12.30;10.33;;;;;;;7.43;69.97;99042.91;5108397;27;42915;-74
2021/04/20 06:13:32;;;;;;;12.37;10.43;;;;;;;7.78;69.42;99064.13;5088394;28;40771;-77
2021/04/20 06:16:00;;;;;;;12.60;10.50;;;;;;;8.03;68.67;99059.38;5069050;28;40915;-72
2021/04/20 06:18:30;;;;;;;12.33;10.03;;;;;;;8.11;68.35;99062.50;5107641;27;43009;-73
2021/04/20 06:21:00;;;;;;;11.37;9.70;;;;;;;8.28;68.06;99069.59;5105740;28;41894;-72
2021/04/20 06:23:28;;;;;;;12.53;10.10;;;;;;;8.40;67.93;99073.44;5107256;27;40703;-73
2021/04/20 06:25:57;;;;;;;12.67;10.70;;;;;;;8.58;67.89;99075.13;5107244;28;40808;-72
2021/04/20 06:28:26;;;;;;;12.27;10.40;;;;;;;8.73;67.05;99076.13;5106570;28;43369;-73
2021/04/20 06:30:56;;;;;;;11.90;10.60;;;;;;;8.74;67.01;99068.13;5106084;28;42127;-75
2021/04/20 06:33:24;;;;;;;14.60;11.90;;;;;;;8.88;67.01;99076.19;5107551;28;40204;-73
2021/04/20 06:35:56;;;;;;;15.00;12.47;;;;;;;8.95;66.53;99077.56;5090703;28;40861;-74
2021/04/20 06:38:24;;;;;;;13.90;11.53;;;;;;;9.10;66.67;99072.41;5108755;27;42516;-72
2021/04/20 06:40:53;;;;;;;12.80;10.57;;;;;;;9.35;65.86;99072.81;5094921;28;42886;-70
2021/04/20 06:43:26;;;;;;;13.10;11.43;;;;;;;9.50;65.64;99077.28;5091188;28;40674;-72
2021/04/20 06:45:57;;;;;;;12.83;11.17;;;;;;;9.61;65.40;99077.53;5108184;27;42109;-73
2021/04/20 06:48:33;;;;;;;14.67;11.07;;;;;;;9.69;65.34;99079.75;5108290;27;42695;-70
2021/04/20 06:51:03;;;;;;;12.20;10.60;;;;;;;9.79;64.78;99080.94;5106764;28;42285;-71
2021/04/20 06:53:37;;;;;;;12.70;10.90;;;;;;;9.92;64.65;99075.81;5106339;28;40230;-72
2021/04/20 06:56:11;;;;;;;12.00;10.33;;;;;;;10.00;64.40;99058.59;5106843;28;42307;-71
2021/04/20 06:58:49;;;;;;;14.60;11.73;;;;;;;10.29;63.85;99075.44;5108869;27;42213;-74
2021/04/20 07:01:20;;;;;;;13.37;11.97;;;;;;;10.38;63.11;99077.59;5097596;27;42726;-72
2021/04/20 07:04:09;;;;;;;15.00;12.50;;;;;;;10.52;63.29;99076.75;5086392;28;39695;-71
2021/04/20 07:06:44;;;;;;;15.50;13.50;;;;;;;10.67;63.10;99072.34;5086934;28;41664;-70
2021/04/20 07:09:16;;;;;;;13.87;12.37;;;;;;;10.97;63.13;99078.47;5096640;28;42075;-74
2021/04/20 07:11:47;;;;;;;14.50;12.63;;;;;;;11.43;63.03;99070.34;5107610;28;42133;-73
2021/04/20 07:14:26;;;;;;;15.33;13.57;;;;;;;12.26;60.99;99090.66;5107354;27;39958;-71
2021/04/20 07:17:02;;;;;;;15.33;13.50;;;;;;;13.00;59.61;99098.03;5108806;27;41425;-74
2021/04/20 07:19:48;;;;;;;15.53;13.93;;;;;;;13.65;57.45;99096.13;5105730;28;41993;-74
2021/04/20 07:22:43;;;;;;;17.63;15.47;;;;;;;14.24;55.92;99106.06;5105846;28;42719;-72
2021/04/20 07:25:21;;;;;;;17.53;14.87;;;;;;;14.53;54.11;99112.81;5089258;28;39166;-73
2021/04/20 07:27:58;;;;;;;20.43;18.23;;;;;;;14.73;53.18;99112.16;5106913;27;43142;-72
2021/04/20 07:30:33;;;;;;;21.87;19.20;;;;;;;14.93;53.20;99104.47;5086668;28;42550;-73
2021/04/20 07:33:16;;;;;;;20.03;17.93;;;;;;;15.30;52.69;99114.03;5091101;28;42954;-73
2021/04/20 07:35:53;;;;;;;18.67;16.70;;;;;;;16.02;50.48;99121.69;5109792;28;39921;-73
2021/04/20 07:38:30;;;;;;;19.60;17.53;;;;;;;16.93;48.14;99135.56;5109639;27;41585;-73
2021/04/20 07:41:06;;;;;;;19.90;16.87;;;;;;;17.84;47.26;99140.19;5109782;28;43333;-75
2021/04/20 07:43:53;;;;;;;18.37;16.47;;;;;;;18.53;45.13;99141.09;5089495;28;42357;-74
2021/04/20 07:46:24;;;;;;;17.17;15.47;;;;;;;19.02;43.01;99129.44;5103465;28;40597;-73
2021/04/20 07:48:55;;;;;;;17.80;16.13;;;;;;;19.56;41.00;99159.31;5071933;28;40464;-74
2021/04/20 07:51:29;;;;;;;18.70;16.80;;;;;;;19.66;42.04;99144.88;5091107;28;42790;-74
2021/04/20 07:54:07;;;;;;;18.97;17.07;;;;;;;20.09;42.20;99132.69;5081841;28;41427;-74
2021/04/20 07:56:44;;;;;;;18.87;17.07;;;;;;;20.99;39.88;99135.34;5110739;28;39352;-74
2021/04/20 07:59:16;;;;;;;18.17;16.27;;;;;;;22.07;37.20;99169.16;5108257;28;42218;-76
2021/04/20 08:01:52;;;;;;;17.50;15.80;;;;;;;23.26;35.42;99168.78;5111504;27;43405;-73
2021/04/20 08:04:29;;;;;;;17.33;15.57;;;;;;;25.13;33.20;99180.88;5109530;28;41321;-73
2021/04/20 08:07:02;;;;;;;19.57;17.73;;;;;;;26.36;30.85;99193.13;5110987;27;40111;-73
2021/04/20 08:09:35;;;;;;;18.00;16.30;;;;;;;26.48;29.95;99191.63;5111089;27;42220;-73
2021/04/20 08:12:06;;;;;;;19.80;17.97;;;;;;;26.02;29.93;99191.81;5109677;28;42317;-73
2021/04/20 08:14:40;;;;;;;19.03;17.23;;;;;;;25.75;30.74;99182.41;5110144;27;41891;-75
2021/04/20 08:17:11;;;;;;;21.90;19.83;;;;;;;25.38;30.82;99171.53;5108240;28;40638;-76
2021/04/20 08:19:42;;;;;;;19.60;17.63;;;;;;;25.35;31.47;99169.19;5092732;28;41042;-75
2021/04/20 08:22:14;;;;;;;19.77;17.83;;;;;;;25.86;30.69;99170.25;5092578;28;41776;-75
2021/04/20 08:24:50;;;;;;;20.67;18.80;;;;;;;26.45;29.19;99175.72;5108506;27;42457;-74
2021/04/20 08:27:24;;;;;;;21.20;19.30;;;;;;;27.14;29.30;99163.34;5110707;27;40256;-74
2021/04/20 08:29:57;;;;;;;19.77;17.97;;;;;;;28.21;27.35;99180.34;5108693;28;41467;-74
2021/04/20 08:32:28;;;;;;;19.77;17.97;;;;;;;29.24;26.18;99182.00;5110528;27;42727;-73
2021/04/20 08:35:01;;;;;;;23.40;21.40;;;;;;;29.83;25.31;99180.38;5107817;28;41449;-74
2021/04/20 08:37:39;;;;;;;20.73;19.03;;;;;;;30.63;23.56;99198.31;5109356;28;40685;-74
2021/04/20 08:40:24;;;;;;;21.77;19.97;;;;;;;31.53;22.52;99183.47;5108940;28;42164;-75
2021/04/20 08:42:59;;;;;;;19.27;17.73;;;;;;;32.28;22.57;99181.53;5106302;28;41867;-74
2021/04/20 08:45:34;;;;;;;18.53;17.03;;;;;;;32.37;21.47;99185.69;5089619;28;42991;-74
2021/04/20 08:48:13;;;;;;;20.27;18.60;;;;;;;31.62;22.49;99176.69;5073069;28;39973;-73
2021/04/20 08:50:45;;;;;;;20.07;18.47;;;;;;;31.26;22.44;99177.38;5088709;28;41939;-76
2021/04/20 08:53:29;;;;;;;19.83;18.13;;;;;;;31.41;22.70;99163.34;5074688;28;42876;-73
2021/04/20 08:56:07;;;;;;;18.30;16.77;;;;;;;31.98;22.11;99166.88;5109076;27;42884;-73
2021/04/20 08:58:46;;;;;;;17.93;16.43;;;;;;;32.41;21.69;99159.47;5110339;27;40044;-72
2021/04/20 09:01:24;;;;;;;18.60;17.00;;;;;;;32.55;21.29;99171.09;5110315;27;41865;-74
2021/04/20 09:04:02;;;;;;;19.53;17.90;;;;;;;32.12;21.15;99132.81;5107663;28;41237;-73
2021/04/20 09:06:36;;;;;;;18.93;17.13;;;;;;;31.47;20.99;99162.47;5108824;27;41651;-73
2021/04/20 09:09:05;;;;;;;18.53;17.03;;;;;;;30.77;22.06;99161.66;5107679;28;40503;-74
2021/04/20 09:11:40;;;;;;;18.97;17.37;;;;;;;30.61;23.90;99143.84;5108173;27;41480;-75
2021/04/20 09:14:09;;;;;;;20.37;18.57;;;;;;;30.77;21.63;99155.34;5107250;28;42528;-74
2021/04/20 09:16:43;;;;;;;20.40;18.70;;;;;;;30.88;22.79;99141.81;5108873;28;41657;-75
2021/04/20 09:19:12;;;;;;;17.20;15.77;;;;;;;30.72;23.18;99117.72;5090641;28;38721;-74
2021/04/20 09:21:50;;;;;;;16.77;15.27;;;;;;;30.64;23.09;99140.69;5109429;27;42185;-76
2021/04/20 09:24:20;;;;;;;16.90;15.40;;;;;;;30.93;21.69;99152.91;5106787;28;42593;-74
2021/04/20 09:27:10;;;;;;;17.47;16.07;;;;;;;30.67;22.53;99136.66;5093764;28;41947;-75
2021/04/20 09:29:45;;;;;;;17.73;16.23;;;;;;;30.74;22.68;99139.38;5107059;28;40256;-74
2021/04/20 09:32:19;;;;;;;16.73;15.13;;;;;;;30.68;22.11;99143.81;5106821;28;41499;-75
2021/04/20 09:34:49;;;;;;;20.10;18.43;;;;;;;30.97;21.15;99148.69;5107551;28;42516;-74
2021/04/20 09:37:17;;;;;;;20.07;18.47;;;;;;;31.82;20.38;99143.66;5091330;28;41215;-75
2021/04/20 09:39:49;;;;;;;17.90;16.37;;;;;;;32.42;20.04;99152.91;5108416;27;39837;-74
2021/04/20 09:42:19;;;;;;;18.03;16.53;;;;;;;32.82;21.17;99134.06;5107384;28;40692;-75
2021/04/20 09:45:09;;;;;;;17.33;15.93;;;;;;;32.69;19.52;99145.19;5107602;28;42261;-74
2021/04/20 09:48:02;;;;;;;16.83;15.43;;;;;;;31.92;21.25;99132.16;5094515;28;42815;-76
2021/04/20 09:50:40;;;;;;;17.00;15.53;;;;;;;31.90;21.89;99124.16;5106915;27;40074;-76
2021/04/20 09:53:49;;;;;;;17.13;15.70;;;;;;;32.02;21.22;99133.31;5106575;28;41686;-75
2021/04/20 09:56:22;;;;;;;21.90;20.00;;;;;;;32.27;21.29;99116.81;5048622;28;42381;-76
2021/04/20 09:58:50;;;;;;;21.30;19.50;;;;;;;32.59;21.59;99122.13;5089078;28;41986;-73
2021/04/20 10:01:27;;;;;;;19.53;17.83;;;;;;;33.38;19.68;99134.75;5092579;28;39072;-75
2021/04/20 10:03:59;;;;;;;17.60;16.10;;;;;;;33.22;20.17;99127.16;5101342;27;41750;-75
2021/04/20 10:07:09;;;;;;;17.23;15.83;;;;;;;33.51;19.82;99129.00;5103476;28;42494;-74
2021/04/20 10:09:45;;;;;;;14.43;13.27;;;;;;;32.96;20.68;99118.25;5076502;28;41220;-74
2021/04/20 10:12:24;;;;;;;15.00;13.80;;;;;;;31.59;20.79;99116.88;5108272;27;39900;-75
2021/04/20 10:15:03;;;;;;;12.93;11.90;;;;;;;29.98;22.66;99118.19;5107049;27;42221;-73
2021/04/20 10:17:38;;;;;;;14.43;13.13;;;;;;;29.09;22.88;99096.81;5108652;27;43754;-73
2021/04/20 10:20:16;;;;;;;14.73;13.43;;;;;;;30.90;21.58;99101.41;5106398;27;42217;-74
2021/04/20 10:22:52;;;;;;;13.97;12.67;;;;;;;32.57;20.89;99108.66;5090793;28;40321;-74
2021/04/20 10:25:29;;;;;;;13.30;12.20;;;;;;;34.14;18.45;99126.38;5088980;28;42167;-74
2021/04/20 10:28:00;;;;;;;14.53;13.33;;;;;;;35.61;17.29;99125.66;5088811;28;42573;-76
2021/04/20 10:30:32;;;;;;;11.18;10.27;;;;;;;37.03;15.90;99130.34;5107330;28;40664;-75
2021/04/20 10:33:00;;;;;;;12.40;11.50;;;;;;;37.42;14.76;99119.13;5106735;27;40656;-74
2021/04/20 10:35:30;;;;;;;12.70;11.80;;;;;;;36.22;15.99;99129.38;5087827;28;42274;-72
2021/04/20 10:38:00;;;;;;;11.83;10.93;;;;;;;34.81;17.19;99121.22;5096357;28;41876;-74
2021/04/20 10:40:34;;;;;;;11.23;10.27;;;;;;;34.16;17.77;99115.16;5106558;28;42741;-72
2021/04/20 10:43:05;;;;;;;10.87;10.07;;;;;;;35.27;17.10;99091.78;5105976;28;39428;-73
2021/04/20 10:45:34;;;;;;;12.63;11.63;;;;;;;36.02;15.76;99098.72;5086408;28;41649;-75
2021/04/20 10:48:02;;;;;;;10.80;9.90;;;;;;;36.64;16.47;99096.50;5077432;28;42707;-74
2021/04/20 10:50:32;;;;;;;12.40;11.50;;;;;;;36.98;15.30;99111.78;5087471;28;41869;-74
2021/04/20 10:53:05;;;;;;;11.25;10.40;;;;;;;37.42;15.76;99097.00;5088130;28;40192;-72
2021/04/20 10:55:36;;;;;;;11.63;10.73;;;;;;;37.93;15.02;99104.59;5089730;28;42022;-73
2021/04/20 10:58:05;;;;;;;11.43;10.43;;;;;;;38.33;15.44;99089.34;5105946;28;42758;-75
2021/04/20 11:00:35;;;;;;;10.00;9.30;;;;;;;38.98;14.96;99083.16;5108083;27;42233;-73
2021/04/20 11:03:05;;;;;;;10.97;10.17;;;;;;;38.68;14.48;99091.41;5089334;28;38787;-75
2021/04/20 11:05:33;;;;;;;10.77;9.87;;;;;;;38.87;14.17;99089.78;5108114;27;42035;-75
2021/04/20 11:08:01;;;;;;;12.63;11.50;;;;;;;39.10;14.09;99091.22;5110708;27;43548;-76
2021/04/20 11:10:36;;;;;;;12.52;11.43;;;;;;;39.49;14.13;99066.56;5112548;27;42824;-76
2021/04/20 11:13:05;;;;;;;12.93;11.80;;;;;;;39.88;14.81;99066.78;5094041;28;39330;-76
2021/04/20 11:15:33;;;;;;;18.25;16.75;;;;;;;39.79;13.06;99087.88;5092767;28;40767;-74
2021/04/20 11:18:09;;;;;;;11.43;10.53;;;;;;;39.36;13.43;99072.66;5110917;27;42619;-75
2021/04/20 11:20:38;;;;;;;10.87;9.67;;;;;;;39.40;13.30;99071.81;5111560;27;42159;-75
2021/04/20 11:23:19;;;;;;;14.30;13.10;;;;;;;38.41;14.10;99078.56;5108888;27;39859;-76
2021/04/20 11:25:57;;;;;;;15.10;13.70;;;;;;;37.32;15.31;99062.69;5073499;28;40813;-74
2021/04/20 11:28:31;;;;;;;14.17;12.97;;;;;;;36.88;15.82;99055.63;5089942;28;42087;-74
2021/04/20 11:31:00;;;;;;;13.67;12.57;;;;;;;36.70;15.97;99045.81;5090180;28;42538;-74
2021/04/20 11:33:33;;;;;;;13.70;12.60;;;;;;;37.44;15.39;99039.56;5089318;28;40636;-75
2021/04/20 11:36:05;;;;;;;13.67;12.60;;;;;;;38.36;15.22;99036.19;5091384;28;41837;-76
2021/04/20 11:38:42;;;;;;;12.73;11.73;;;;;;;37.15;15.45;99034.34;5096242;28;42446;-77
2021/04/20 11:41:11;;;;;;;14.20;12.90;;;;;;;37.13;14.42;99058.63;5110974;27;42004;-73
2021/04/20 11:43:39;;;;;;;11.73;10.73;;;;;;;35.80;15.91;99046.31;5093263;28;40222;-75